createdAt,value
2017-11-08T00:00:59.049Z,20.10
2017-11-08T00:02:01.112Z,21.90
2017-11-08T00:03:02.419Z,20.17
2017-11-08T00:04:03.747Z,21.70
2017-11-08T00:05:05.092Z,20.13
2017-11-08T00:06:06.726Z,20.00
2017-11-08T00:07:08.032Z,23.80
2017-11-08T00:08:09.350Z,21.97
2017-11-08T00:09:10.690Z,22.83
2017-11-08T00:10:12.003Z,23.23
2017-11-08T00:11:14.416Z,22.93
2017-11-08T00:12:15.728Z,22.73
2017-11-08T00:13:17.051Z,23.30
2017-11-08T00:14:19.116Z,22.13
2017-11-08T00:15:20.483Z,22.77
2017-11-08T00:16:21.840Z,23.47
2017-11-08T00:17:23.159Z,21.67
2017-11-08T00:18:25.430Z,19.13
2017-11-08T00:19:26.740Z,20.03
2017-11-08T00:20:28.049Z,20.43
2017-11-08T00:21:32.195Z,18.43
2017-11-08T00:22:33.504Z,18.37
2017-11-08T00:23:34.827Z,18.00
2017-11-08T00:24:36.878Z,17.90
2017-11-08T00:25:38.953Z,18.50
2017-11-08T00:26:40.545Z,18.10
2017-11-08T00:27:41.876Z,17.23
2017-11-08T00:28:43.220Z,18.53
2017-11-08T00:29:44.525Z,19.40
2017-11-08T00:30:45.830Z,20.33
2017-11-08T00:31:47.448Z,19.07
2017-11-08T00:32:48.809Z,17.20
2017-11-08T00:33:50.110Z,17.73
2017-11-08T00:34:51.409Z,16.43
2017-11-08T00:35:53.483Z,17.00
2017-11-08T00:36:55.084Z,16.97
2017-11-08T00:37:56.396Z,17.13
2017-11-08T00:38:57.720Z,16.97
2017-11-08T00:39:59.062Z,16.50
2017-11-08T00:41:00.384Z,15.70
2017-11-08T00:42:02.004Z,15.53
2017-11-08T00:43:04.061Z,15.30
2017-11-08T00:44:05.498Z,15.20
2017-11-08T00:45:07.592Z,14.40
2017-11-08T00:46:08.928Z,15.03
2017-11-08T00:47:10.536Z,15.80
2017-11-08T00:48:12.582Z,14.17
2017-11-08T00:49:14.653Z,14.83
2017-11-08T00:50:16.022Z,13.17
2017-11-08T00:51:17.344Z,15.03
2017-11-08T00:52:18.998Z,14.83
2017-11-08T00:53:20.343Z,14.67
2017-11-08T00:54:21.686Z,13.70
2017-11-08T00:55:23.020Z,13.33
2017-11-08T00:56:24.368Z,13.13
2017-11-08T00:57:32.261Z,13.80
2017-11-08T00:58:33.574Z,12.63
2017-11-08T00:59:34.893Z,12.23
2017-11-08T01:00:36.937Z,11.63
2017-11-08T01:01:38.985Z,11.17
2017-11-08T01:02:41.629Z,11.77
2017-11-08T01:03:45.768Z,10.77
2017-11-08T01:04:47.076Z,11.73
2017-11-08T01:05:48.401Z,11.67
2017-11-08T01:06:49.728Z,10.77
2017-11-08T01:07:51.369Z,10.10
2017-11-08T01:08:52.694Z,10.50
2017-11-08T01:09:54.641Z,10.20
2017-11-08T01:10:56.003Z,9.23
2017-11-08T01:11:57.311Z,8.70
2017-11-08T01:12:58.863Z,9.10
2017-11-08T01:14:00.172Z,8.90
2017-11-08T01:15:02.250Z,8.80
2017-11-08T01:16:03.605Z,8.73
2017-11-08T01:17:04.939Z,8.93
2017-11-08T01:18:06.583Z,8.07
2017-11-08T01:19:07.903Z,8.97
2017-11-08T01:20:09.286Z,8.43
2017-11-08T01:21:10.651Z,9.10
2017-11-08T01:22:11.984Z,8.20
2017-11-08T01:23:13.664Z,9.07
2017-11-08T01:24:14.990Z,9.30
2017-11-08T01:25:17.048Z,9.00
2017-11-08T01:26:19.106Z,9.10
2017-11-08T01:27:21.193Z,8.43
2017-11-08T01:28:22.822Z,9.33
2017-11-08T01:29:24.132Z,9.30
2017-11-08T01:30:26.188Z,9.03
2017-11-08T01:31:28.253Z,9.33
2017-11-08T01:32:30.305Z,8.83
2017-11-08T01:33:32.904Z,9.63
2017-11-08T01:34:34.265Z,9.37
2017-11-08T01:35:35.633Z,9.83
2017-11-08T01:36:36.955Z,10.57
2017-11-08T01:37:39.023Z,11.40
2017-11-08T01:38:42.688Z,10.97
2017-11-08T01:39:46.033Z,9.90
2017-11-08T01:40:48.340Z,10.53
2017-11-08T01:41:55.647Z,9.90
2017-11-08T01:42:57.726Z,10.23
2017-11-08T01:44:00.079Z,9.40
2017-11-08T01:45:02.175Z,10.70
2017-11-08T01:46:03.486Z,9.93
2017-11-08T01:47:04.832Z,10.20
2017-11-08T01:48:08.104Z,10.43
2017-11-08T01:49:09.719Z,9.90
2017-11-08T01:50:11.059Z,9.83
2017-11-08T01:51:13.304Z,9.80
2017-11-08T01:52:16.544Z,9.07
2017-11-08T01:53:17.878Z,9.20
2017-11-08T01:54:19.491Z,9.73
2017-11-08T01:55:20.880Z,9.80
2017-11-08T01:56:22.228Z,11.33
2017-11-08T01:57:23.573Z,10.67
2017-11-08T01:58:24.937Z,10.90
2017-11-08T01:59:26.600Z,9.80
2017-11-08T02:00:28.668Z,9.57
2017-11-08T02:01:30.760Z,8.73
2017-11-08T02:02:32.094Z,9.30
2017-11-08T02:03:33.447Z,11.33
2017-11-08T02:04:35.094Z,10.53
2017-11-08T02:05:36.457Z,11.13
2017-11-08T02:06:37.773Z,11.97
2017-11-08T02:07:39.085Z,10.07
2017-11-08T02:08:40.452Z,12.13
2017-11-08T02:09:42.168Z,9.23
2017-11-08T02:10:43.479Z,11.50
2017-11-08T02:11:45.546Z,12.67
2017-11-08T02:12:46.909Z,13.63
2017-11-08T02:13:48.274Z,15.27
2017-11-08T02:14:49.912Z,19.43
2017-11-08T02:15:51.252Z,20.80
2017-11-08T02:16:52.590Z,23.67
2017-11-08T02:17:56.904Z,17.00
2017-11-08T02:19:00.266Z,14.33
2017-11-08T02:20:01.903Z,14.00
2017-11-08T02:21:07.282Z,13.37
2017-11-08T02:22:09.403Z,19.07
2017-11-08T02:23:10.780Z,19.53
2017-11-08T02:24:12.153Z,17.90
2017-11-08T02:25:13.933Z,14.37
2017-11-08T02:26:15.293Z,14.53
2017-11-08T02:27:17.508Z,12.20
2017-11-08T02:28:18.877Z,13.80
2017-11-08T02:29:20.229Z,12.67
2017-11-08T02:30:23.344Z,14.23
2017-11-08T02:31:25.437Z,13.13
2017-11-08T02:32:26.781Z,16.73
2017-11-08T02:33:32.127Z,14.90
2017-11-08T02:34:34.229Z,14.10
2017-11-08T02:35:36.598Z,13.43
2017-11-08T02:36:37.957Z,13.33
2017-11-08T02:37:41.294Z,10.77
2017-11-08T02:38:42.627Z,9.90
2017-11-08T02:39:43.980Z,9.43
2017-11-08T02:40:45.649Z,9.17
2017-11-08T02:41:47.005Z,9.93
2017-11-08T02:42:48.344Z,11.43
2017-11-08T02:43:49.717Z,11.63
2017-11-08T02:44:51.061Z,10.93
2017-11-08T02:45:52.792Z,11.53
2017-11-08T02:46:57.801Z,11.27
2017-11-08T02:47:59.144Z,11.70
2017-11-08T02:49:00.488Z,11.40
2017-11-08T02:50:02.596Z,11.20
2017-11-08T02:51:07.871Z,10.97
2017-11-08T02:52:11.984Z,11.57
2017-11-08T02:53:19.444Z,10.13
2017-11-08T02:54:23.666Z,11.97
2017-11-08T02:55:24.969Z,10.63
2017-11-08T02:56:26.572Z,9.83
2017-11-08T02:57:27.912Z,11.00
2017-11-08T02:58:29.237Z,11.13
2017-11-08T02:59:30.592Z,13.13
2017-11-08T03:00:31.886Z,11.43
2017-11-08T03:01:33.252Z,10.80
2017-11-08T03:02:40.729Z,10.90
2017-11-08T03:03:45.670Z,11.30
2017-11-08T03:04:46.973Z,11.87
2017-11-08T03:05:48.286Z,11.23
2017-11-08T03:06:49.904Z,12.57
2017-11-08T03:07:52.025Z,10.40
2017-11-08T03:08:53.339Z,11.90
2017-11-08T03:09:54.640Z,10.63
2017-11-08T03:10:56.679Z,10.30
2017-11-08T03:11:58.404Z,11.17
2017-11-08T03:12:59.722Z,10.10
2017-11-08T03:14:01.049Z,9.70
2017-11-08T03:15:02.394Z,9.83
2017-11-08T03:16:03.707Z,9.57
2017-11-08T03:17:06.112Z,9.97
2017-11-08T03:18:07.449Z,9.53
2017-11-08T03:19:08.793Z,9.03
2017-11-08T03:20:10.128Z,9.20
2017-11-08T03:21:11.484Z,8.77
2017-11-08T03:22:13.083Z,8.70
2017-11-08T03:23:14.387Z,8.93
2017-11-08T03:24:15.709Z,9.00
2017-11-08T03:25:17.023Z,9.10
2017-11-08T03:26:18.351Z,9.60
2017-11-08T03:27:19.993Z,8.43
2017-11-08T03:28:21.356Z,8.60
2017-11-08T03:29:22.688Z,8.90
2017-11-08T03:30:24.008Z,8.90
2017-11-08T03:31:25.331Z,8.73
2017-11-08T03:32:26.934Z,7.80
2017-11-08T03:33:28.352Z,8.33
2017-11-08T03:34:29.672Z,9.17
2017-11-08T03:35:31.029Z,8.83
2017-11-08T03:36:32.388Z,8.73
2017-11-08T03:37:33.833Z,8.87
2017-11-08T03:38:35.141Z,8.73
2017-11-08T03:39:36.468Z,8.07
2017-11-08T03:40:37.829Z,8.63
2017-11-08T03:41:39.179Z,8.73
2017-11-08T03:42:40.788Z,8.27
2017-11-08T03:43:42.124Z,8.93
2017-11-08T03:44:43.431Z,8.70
2017-11-08T03:45:45.483Z,9.00
2017-11-08T03:46:47.572Z,9.40
2017-11-08T03:47:49.229Z,8.77
2017-11-08T03:48:50.574Z,9.40
2017-11-08T03:49:51.895Z,9.50
2017-11-08T03:50:53.236Z,9.17
2017-11-08T03:51:54.568Z,8.83
2017-11-08T03:52:56.404Z,9.17
2017-11-08T03:53:57.732Z,9.47
2017-11-08T03:54:59.798Z,9.80
2017-11-08T03:56:01.132Z,10.43
2017-11-08T03:57:02.460Z,9.67
2017-11-08T03:58:05.170Z,10.10
2017-11-08T03:59:06.503Z,12.03
2017-11-08T04:00:07.838Z,11.67
2017-11-08T04:01:09.172Z,12.80
2017-11-08T04:02:10.491Z,14.63
2017-11-08T04:03:12.874Z,14.60
2017-11-08T04:04:14.213Z,12.90
2017-11-08T04:05:15.527Z,12.27
2017-11-08T04:06:17.586Z,13.30
2017-11-08T04:07:18.928Z,14.03
2017-11-08T04:08:20.593Z,13.80
2017-11-08T04:09:21.909Z,13.13
2017-11-08T04:10:23.212Z,12.80
2017-11-08T04:11:24.547Z,11.93
2017-11-08T04:12:25.889Z,12.73
2017-11-08T04:13:27.510Z,12.03
2017-11-08T04:14:28.818Z,12.53
2017-11-08T04:15:30.136Z,12.13
2017-11-08T04:16:31.482Z,12.67
2017-11-08T04:17:32.822Z,13.90
2017-11-08T04:18:34.411Z,14.47
2017-11-08T04:19:35.721Z,13.43
2017-11-08T04:20:37.053Z,12.60
2017-11-08T04:21:38.388Z,13.33
2017-11-08T04:22:39.735Z,12.73
2017-11-08T04:23:41.378Z,13.83
2017-11-08T04:24:42.767Z,13.13
2017-11-08T04:25:44.126Z,11.93
2017-11-08T04:26:46.212Z,11.33
2017-11-08T04:27:47.592Z,10.60
2017-11-08T04:28:49.291Z,11.67
2017-11-08T04:29:50.636Z,11.83
2017-11-08T04:30:51.976Z,11.23
2017-11-08T04:31:53.305Z,11.17
2017-11-08T04:32:54.621Z,11.27
2017-11-08T04:33:57.033Z,9.73
2017-11-08T04:34:58.376Z,12.53
2017-11-08T04:35:59.691Z,14.53
2017-11-08T04:37:01.024Z,14.33
2017-11-08T04:38:02.344Z,13.20
2017-11-08T04:39:04.851Z,13.77
2017-11-08T04:40:06.174Z,12.43
2017-11-08T04:41:07.625Z,11.93
2017-11-08T04:42:08.967Z,12.50
2017-11-08T04:43:10.306Z,13.80
2017-11-08T04:44:11.952Z,13.23
2017-11-08T04:45:13.312Z,12.80
2017-11-08T04:46:14.688Z,12.97
2017-11-08T04:47:16.037Z,12.33
2017-11-08T04:48:17.332Z,13.10
2017-11-08T04:49:19.222Z,10.90
2017-11-08T04:50:20.580Z,11.97
2017-11-08T04:51:21.890Z,10.17
2017-11-08T04:52:23.962Z,10.20
2017-11-08T04:53:25.264Z,11.17
2017-11-08T04:54:26.675Z,9.87
2017-11-08T04:55:27.997Z,11.37
2017-11-08T04:56:29.305Z,10.93
2017-11-08T04:57:30.653Z,10.30
2017-11-08T04:58:31.972Z,10.70
2017-11-08T04:59:34.337Z,11.27
2017-11-08T05:00:36.414Z,11.23
2017-11-08T05:01:37.731Z,11.23
2017-11-08T05:02:39.788Z,11.87
2017-11-08T05:03:41.900Z,12.03
2017-11-08T05:04:43.485Z,11.77
2017-11-08T05:05:44.788Z,16.53
2017-11-08T05:06:46.096Z,14.37
2017-11-08T05:07:47.409Z,16.37
2017-11-08T05:08:48.722Z,14.43
2017-11-08T05:09:50.808Z,13.33
2017-11-08T05:10:52.115Z,13.97
2017-11-08T05:11:54.164Z,13.17
2017-11-08T05:12:55.491Z,12.80
2017-11-08T05:13:56.842Z,12.13
2017-11-08T05:15:05.528Z,13.07
2017-11-08T05:16:06.817Z,12.23
2017-11-08T05:17:08.137Z,13.90
2017-11-08T05:18:10.219Z,15.27
2017-11-08T05:19:11.544Z,16.33
2017-11-08T05:20:14.555Z,16.43
2017-11-08T05:21:15.899Z,19.03
2017-11-08T05:22:17.238Z,19.03
2017-11-08T05:23:18.559Z,18.60
2017-11-08T05:24:19.880Z,19.13
2017-11-08T05:25:21.250Z,18.43
2017-11-08T05:26:22.587Z,17.40
2017-11-08T05:27:23.885Z,18.00
2017-11-08T05:28:25.936Z,16.33
2017-11-08T05:29:27.979Z,16.03
2017-11-08T05:30:30.616Z,16.10
2017-11-08T05:31:31.937Z,13.43
2017-11-08T05:32:33.252Z,13.33
2017-11-08T05:33:34.582Z,13.63
2017-11-08T05:34:35.906Z,12.90
2017-11-08T05:35:38.233Z,11.70
2017-11-08T05:36:39.558Z,11.80
2017-11-08T05:37:40.895Z,12.00
2017-11-08T05:38:42.252Z,11.70
2017-11-08T05:39:43.633Z,12.33
2017-11-08T05:40:44.988Z,11.07
2017-11-08T05:41:46.341Z,10.57
2017-11-08T05:42:47.656Z,10.93
2017-11-08T05:43:48.972Z,11.30
2017-11-08T05:44:51.048Z,10.23
2017-11-08T05:45:52.399Z,10.17
2017-11-08T05:46:53.728Z,11.37
2017-11-08T05:47:55.141Z,10.10
2017-11-08T05:48:57.208Z,10.87
2017-11-08T05:49:59.312Z,11.30
2017-11-08T05:51:00.946Z,10.80
2017-11-08T05:52:02.293Z,10.40
2017-11-08T05:53:03.609Z,9.93
2017-11-08T05:54:04.973Z,10.37
2017-11-08T05:55:06.315Z,10.23
2017-11-08T05:56:07.656Z,10.77
2017-11-08T05:57:09.016Z,11.87
2017-11-08T05:58:10.324Z,11.43
2017-11-08T05:59:12.388Z,10.70
2017-11-08T06:00:13.708Z,12.67
2017-11-08T06:01:15.561Z,13.27
2017-11-08T06:02:16.896Z,16.93
2017-11-08T06:03:18.203Z,15.57
2017-11-08T06:04:20.299Z,17.77
2017-11-08T06:05:21.604Z,15.87
2017-11-08T06:06:23.283Z,12.17
2017-11-08T06:07:25.324Z,12.53
2017-11-08T06:08:26.629Z,11.30
2017-11-08T06:09:28.702Z,11.10
2017-11-08T06:10:30.021Z,10.10
2017-11-08T06:11:32.413Z,9.73
2017-11-08T06:12:33.728Z,10.37
2017-11-08T06:13:35.036Z,10.87
2017-11-08T06:14:36.352Z,12.40
2017-11-08T06:15:37.692Z,10.13
2017-11-08T06:16:39.796Z,9.57
2017-11-08T06:17:41.878Z,9.60
2017-11-08T06:18:43.209Z,10.63
2017-11-08T06:19:44.529Z,9.43
2017-11-08T06:20:46.580Z,10.20
2017-11-08T06:21:48.910Z,9.37
2017-11-08T06:22:50.235Z,9.87
2017-11-08T06:23:51.536Z,9.90
2017-11-08T06:24:52.823Z,8.37
2017-11-08T06:25:54.168Z,9.57
2017-11-08T06:26:55.570Z,8.70
2017-11-08T06:27:56.875Z,9.83
2017-11-08T06:28:58.935Z,8.97
2017-11-08T06:30:00.240Z,8.80
2017-11-08T06:31:01.572Z,9.97
2017-11-08T06:32:03.218Z,9.93
2017-11-08T06:33:04.512Z,9.43
2017-11-08T06:34:05.844Z,9.70
2017-11-08T06:35:07.164Z,11.20
2017-11-08T06:36:09.223Z,10.47
2017-11-08T06:37:11.569Z,10.00
2017-11-08T06:38:13.635Z,11.00
2017-11-08T06:39:15.731Z,10.03
2017-11-08T06:40:17.048Z,10.50
2017-11-08T06:41:18.388Z,9.97
2017-11-08T06:42:20.013Z,10.10
2017-11-08T06:43:22.090Z,11.97
2017-11-08T06:44:23.641Z,11.87
2017-11-08T06:45:25.161Z,10.73
2017-11-08T06:46:26.486Z,10.20
2017-11-08T06:47:28.591Z,11.60
2017-11-08T06:48:29.964Z,11.37
2017-11-08T06:49:31.289Z,10.47
2017-11-08T06:50:32.603Z,10.07
2017-11-08T06:51:34.725Z,10.53
2017-11-08T06:52:37.832Z,10.10
2017-11-08T06:53:42.112Z,10.87
2017-11-08T06:54:43.434Z,12.53
2017-11-08T06:55:51.663Z,11.17
2017-11-08T06:56:52.988Z,12.37
2017-11-08T06:57:54.349Z,11.60
2017-11-08T06:58:55.668Z,12.20
2017-11-08T06:59:56.996Z,13.73
2017-11-08T07:00:59.085Z,13.40
2017-11-08T07:02:00.400Z,12.27
2017-11-08T07:03:01.992Z,13.03
2017-11-08T07:04:03.337Z,11.15
2017-11-08T07:05:05.501Z,14.30
2017-11-08T07:06:06.851Z,12.03
2017-11-08T07:07:08.181Z,13.23
2017-11-08T07:08:12.742Z,12.60
2017-11-08T07:09:14.076Z,11.93
2017-11-08T07:10:15.408Z,11.70
2017-11-08T07:11:16.737Z,13.17
2017-11-08T07:12:18.790Z,11.63
2017-11-08T07:13:21.399Z,12.33
2017-11-08T07:14:22.751Z,12.77
2017-11-08T07:15:24.104Z,11.57
2017-11-08T07:16:25.405Z,11.37
2017-11-08T07:17:30.631Z,12.23
2017-11-08T07:18:31.991Z,11.70
2017-11-08T07:19:33.309Z,11.73
2017-11-08T07:20:34.649Z,13.20
2017-11-08T07:21:35.975Z,13.27
2017-11-08T07:22:37.299Z,11.03
2017-11-08T07:23:39.640Z,11.70
2017-11-08T07:24:40.980Z,10.67
2017-11-08T07:25:43.061Z,13.27
2017-11-08T07:26:44.363Z,9.87
2017-11-08T07:27:45.698Z,10.10
2017-11-08T07:28:47.329Z,9.40
2017-11-08T07:29:48.667Z,9.30
2017-11-08T07:30:49.959Z,9.10
2017-11-08T07:31:51.303Z,9.43
2017-11-08T07:32:52.604Z,9.83
2017-11-08T07:33:53.956Z,8.73
2017-11-08T07:34:56.013Z,8.90
2017-11-08T07:35:58.064Z,10.30
2017-11-08T07:37:00.093Z,10.30
2017-11-08T07:38:01.445Z,9.60
2017-11-08T07:39:02.823Z,10.50
2017-11-08T07:40:04.175Z,12.43
2017-11-08T07:41:05.514Z,11.93
2017-11-08T07:42:06.841Z,10.40
2017-11-08T07:43:08.183Z,10.53
2017-11-08T07:44:09.815Z,10.47
2017-11-08T07:45:11.137Z,11.13
2017-11-08T07:46:13.200Z,11.80
2017-11-08T07:47:15.233Z,9.50
2017-11-08T07:48:16.585Z,10.60
2017-11-08T07:49:18.747Z,10.77
2017-11-08T07:50:20.076Z,9.60
2017-11-08T07:51:22.153Z,9.80
2017-11-08T07:52:23.506Z,10.70
2017-11-08T07:53:25.673Z,9.07
2017-11-08T07:54:27.268Z,10.13
2017-11-08T07:55:37.148Z,8.93
2017-11-08T07:56:38.483Z,8.33
2017-11-08T07:57:40.576Z,9.10
2017-11-08T07:58:41.946Z,10.00
2017-11-08T07:59:49.264Z,9.47
2017-11-08T08:00:50.620Z,9.53
2017-11-08T08:01:51.962Z,8.73
2017-11-08T08:02:53.285Z,9.33
2017-11-08T08:03:54.636Z,9.03
2017-11-08T08:04:55.988Z,9.10
2017-11-08T08:05:57.316Z,10.37
2017-11-08T08:06:58.648Z,9.60
2017-11-08T08:07:59.962Z,10.00
2017-11-08T08:09:01.300Z,10.17
2017-11-08T08:10:02.673Z,9.40
2017-11-08T08:11:14.732Z,9.00
2017-11-08T08:12:16.028Z,9.20
2017-11-08T08:13:18.080Z,9.20
2017-11-08T08:14:20.164Z,9.83
2017-11-08T08:15:21.537Z,9.53
2017-11-08T08:16:22.867Z,9.43
2017-11-08T08:17:24.184Z,10.40
2017-11-08T08:18:25.493Z,10.60
2017-11-08T08:19:27.552Z,11.20
2017-11-08T08:20:29.676Z,10.37
2017-11-08T08:21:31.023Z,10.37
2017-11-08T08:22:32.337Z,9.83
2017-11-08T08:23:33.653Z,9.13
2017-11-08T08:24:34.966Z,9.93
2017-11-08T08:25:37.048Z,9.10
2017-11-08T08:26:44.542Z,10.77
2017-11-08T08:27:49.691Z,14.40
2017-11-08T08:28:51.020Z,17.47
2017-11-08T08:29:52.374Z,16.13
2017-11-08T08:30:53.999Z,15.63
2017-11-08T08:31:55.285Z,15.73
2017-11-08T08:32:57.342Z,15.93
2017-11-08T08:33:59.383Z,15.13
2017-11-08T08:35:00.748Z,15.57
2017-11-08T08:36:03.143Z,14.30
2017-11-08T08:37:04.501Z,14.63
2017-11-08T08:38:05.827Z,13.97
2017-11-08T08:39:07.144Z,13.47
2017-11-08T08:40:08.469Z,12.80
2017-11-08T08:41:09.826Z,16.37
2017-11-08T08:42:11.146Z,15.73
2017-11-08T08:43:12.467Z,14.17
2017-11-08T08:44:14.516Z,11.50
2017-11-08T08:45:16.569Z,10.00
2017-11-08T08:46:18.276Z,8.80
2017-11-08T08:47:19.576Z,8.33
2017-11-08T08:48:20.892Z,9.37
2017-11-08T08:49:22.969Z,10.73
2017-11-08T08:50:24.289Z,12.23
2017-11-08T08:51:26.648Z,10.70
2017-11-08T08:52:28.716Z,11.10
2017-11-08T08:53:30.775Z,11.50
2017-11-08T08:54:32.176Z,10.13
2017-11-08T08:55:33.488Z,13.43
2017-11-08T08:56:34.844Z,14.00
2017-11-08T08:57:36.149Z,12.43
2017-11-08T08:58:37.437Z,16.80
2017-11-08T08:59:38.780Z,15.73
2017-11-08T09:00:40.085Z,14.77
2017-11-08T09:01:41.416Z,13.77
2017-11-08T09:02:48.577Z,11.17
2017-11-08T09:03:49.881Z,11.83
2017-11-08T09:04:51.937Z,11.57
2017-11-08T09:05:53.985Z,10.33
2017-11-08T09:06:57.213Z,10.03
2017-11-08T09:07:58.526Z,9.40
2017-11-08T09:08:59.846Z,11.82
2017-11-08T09:10:01.950Z,11.00
2017-11-08T09:11:03.454Z,9.97
2017-11-08T09:12:05.852Z,10.45
2017-11-08T09:13:08.353Z,10.35
2017-11-08T09:14:09.664Z,8.40
2017-11-08T09:15:11.006Z,7.43
2017-11-08T09:16:13.817Z,7.78
2017-11-08T09:17:15.402Z,6.30
2017-11-08T09:18:16.733Z,7.05
2017-11-08T09:19:18.071Z,7.27
2017-11-08T09:20:29.388Z,7.50
2017-11-08T09:21:30.736Z,7.43
2017-11-08T09:22:32.836Z,7.33
2017-11-08T09:23:34.173Z,6.23
2017-11-08T09:24:35.504Z,6.30
2017-11-08T09:25:36.853Z,6.97
2017-11-08T09:26:38.171Z,6.90
2017-11-08T09:27:40.299Z,9.63
2017-11-08T09:28:42.635Z,14.23
2017-11-08T09:29:45.911Z,12.17
2017-11-08T09:30:47.259Z,9.17
2017-11-08T09:31:48.593Z,7.13
2017-11-08T09:32:50.231Z,7.37
2017-11-08T09:33:51.609Z,6.57
2017-11-08T09:34:55.825Z,7.83
2017-11-08T09:35:57.911Z,8.70
2017-11-08T09:36:59.244Z,8.50
2017-11-08T09:38:08.116Z,8.07
2017-11-08T09:39:12.388Z,6.90
2017-11-08T09:40:14.717Z,7.03
2017-11-08T09:41:16.820Z,7.10
2017-11-08T09:42:20.016Z,7.30
2017-11-08T09:43:21.437Z,7.80
2017-11-08T09:44:22.777Z,7.20
2017-11-08T09:45:24.135Z,6.97
2017-11-08T09:46:25.503Z,7.07
2017-11-08T09:47:27.589Z,6.70
2017-11-08T09:48:32.125Z,6.43
2017-11-08T09:49:34.129Z,6.90
2017-11-08T09:50:36.188Z,6.63
2017-11-08T09:51:38.232Z,5.73
2017-11-08T09:52:41.593Z,5.70
2017-11-08T09:53:42.932Z,6.30
2017-11-08T09:54:44.283Z,8.68
2017-11-08T09:55:51.666Z,6.97
2017-11-08T09:56:52.965Z,8.93
2017-11-08T09:57:54.272Z,6.67
2017-11-08T09:58:56.020Z,6.20
2017-11-08T09:59:57.376Z,5.90
2017-11-08T10:01:01.549Z,6.90
2017-11-08T10:02:05.599Z,6.90
2017-11-08T10:03:06.916Z,6.60
2017-11-08T10:04:08.325Z,6.53
2017-11-08T10:05:10.409Z,6.50
2017-11-08T10:06:11.759Z,6.80
2017-11-08T10:07:13.056Z,5.90
2017-11-08T10:08:15.176Z,6.37
2017-11-08T10:09:22.796Z,6.70
2017-11-08T10:10:28.925Z,6.43
2017-11-08T10:11:33.203Z,6.60
2017-11-08T10:12:34.542Z,6.73
2017-11-08T10:13:35.860Z,5.77
2017-11-08T10:14:40.750Z,5.50
2017-11-08T10:15:49.105Z,5.75
2017-11-08T10:16:53.469Z,5.77
2017-11-08T10:17:57.524Z,5.53
2017-11-08T10:18:58.835Z,6.23
2017-11-08T10:20:00.487Z,5.53
2017-11-08T10:21:01.799Z,6.07
2017-11-08T10:22:03.876Z,5.90
2017-11-08T10:23:05.205Z,5.47
2017-11-08T10:24:06.530Z,7.35
2017-11-08T10:25:08.952Z,6.33
2017-11-08T10:26:10.240Z,6.20
2017-11-08T10:27:11.578Z,5.93
2017-11-08T10:28:12.871Z,5.97
2017-11-08T10:29:14.181Z,6.00
2017-11-08T10:30:15.787Z,7.17
2017-11-08T10:31:17.836Z,5.23
2017-11-08T10:32:19.152Z,5.62
2017-11-08T10:33:20.473Z,5.43
2017-11-08T10:34:21.818Z,5.53
2017-11-08T10:35:24.178Z,7.03
2017-11-08T10:36:25.509Z,5.60
2017-11-08T10:37:26.838Z,5.90
2017-11-08T10:38:28.203Z,6.27
2017-11-08T10:39:29.528Z,7.17
2017-11-08T10:40:31.179Z,8.40
2017-11-08T10:41:32.521Z,7.20
2017-11-08T10:42:33.869Z,6.60
2017-11-08T10:43:35.199Z,6.30
2017-11-08T10:44:37.269Z,5.70
2017-11-08T10:45:38.934Z,5.70
2017-11-08T10:46:40.273Z,7.30
2017-11-08T10:47:41.602Z,5.47
2017-11-08T10:48:42.912Z,5.90
2017-11-08T10:49:49.900Z,5.93
2017-11-08T10:50:51.261Z,5.80
2017-11-08T10:51:52.610Z,5.30
2017-11-08T10:52:53.958Z,6.33
2017-11-08T10:53:55.293Z,6.27
2017-11-08T10:54:57.433Z,5.63
2017-11-08T10:55:59.039Z,5.60
2017-11-08T10:57:01.117Z,5.10
2017-11-08T10:58:02.461Z,5.50
2017-11-08T10:59:03.845Z,5.30
2017-11-08T11:00:08.076Z,4.70
2017-11-08T11:01:10.476Z,4.63
2017-11-08T11:02:11.818Z,5.23
2017-11-08T11:03:13.171Z,5.10
2017-11-08T11:04:14.502Z,4.95
2017-11-08T11:05:15.892Z,4.50
2017-11-08T11:06:18.259Z,5.75
2017-11-08T11:07:20.346Z,5.17
2017-11-08T11:08:21.678Z,5.20
2017-11-08T11:09:23.048Z,5.13
2017-11-08T11:10:24.429Z,5.77
2017-11-08T11:11:26.567Z,5.70
2017-11-08T11:12:27.929Z,5.50
2017-11-08T11:13:30.008Z,5.23
2017-11-08T11:14:32.101Z,5.50
2017-11-08T11:15:33.457Z,5.17
2017-11-08T11:16:34.843Z,5.70
2017-11-08T11:17:36.175Z,5.07
2017-11-08T11:18:37.533Z,5.03
2017-11-08T11:19:38.875Z,6.03
2017-11-08T11:20:40.234Z,5.23
2017-11-08T11:21:48.285Z,5.33
2017-11-08T11:22:49.634Z,5.53
2017-11-08T11:23:50.996Z,5.30
2017-11-08T11:24:55.130Z,5.47
2017-11-08T11:25:56.485Z,5.93
2017-11-08T11:27:04.955Z,5.17
2017-11-08T11:28:06.336Z,5.53
2017-11-08T11:29:08.414Z,5.90
2017-11-08T11:30:09.806Z,5.43
2017-11-08T11:31:11.163Z,5.57
2017-11-08T11:32:16.051Z,6.63
2017-11-08T11:33:19.289Z,5.27
2017-11-08T11:34:20.634Z,5.20
2017-11-08T11:35:21.998Z,5.50
2017-11-08T11:36:23.357Z,5.43
2017-11-08T11:37:24.762Z,4.87
2017-11-08T11:38:28.023Z,5.37
2017-11-08T11:39:29.381Z,5.60
2017-11-08T11:40:30.737Z,5.73
2017-11-08T11:41:32.082Z,5.30
2017-11-08T11:42:33.737Z,5.87
2017-11-08T11:43:35.118Z,5.97
2017-11-08T11:44:37.337Z,6.50
2017-11-08T11:45:38.681Z,7.37
2017-11-08T11:46:40.021Z,5.85
2017-11-08T11:47:41.390Z,6.60
2017-11-08T11:49:04.238Z,6.73
2017-11-08T11:50:06.428Z,5.43
2017-11-08T11:51:07.765Z,6.43
2017-11-08T11:53:07.962Z,7.07
2017-11-08T11:54:10.047Z,17.83
2017-11-08T11:55:11.380Z,14.07
2017-11-08T11:56:12.708Z,11.37
2017-11-08T11:57:14.075Z,7.50
2017-11-08T11:58:15.756Z,6.17
2017-11-08T11:59:20.629Z,5.77
2017-11-08T12:00:21.960Z,6.00
2017-11-08T12:01:23.337Z,5.97
2017-11-08T12:02:24.725Z,6.53
2017-11-08T12:03:26.360Z,6.40
2017-11-08T12:04:28.433Z,5.77
2017-11-08T12:05:29.829Z,5.70
2017-11-08T12:06:31.177Z,4.87
2017-11-08T12:08:40.765Z,4.07
2017-11-08T12:09:42.122Z,4.03
2017-11-08T12:10:43.469Z,3.73
2017-11-08T12:11:44.830Z,4.00
2017-11-08T12:12:46.171Z,4.20
2017-11-08T12:13:50.949Z,3.80
2017-11-08T12:14:52.309Z,3.77
2017-11-08T12:15:53.682Z,3.90
2017-11-08T12:16:57.682Z,4.10
2017-11-08T12:17:59.784Z,4.33
2017-11-08T12:19:01.166Z,11.57
2017-11-08T12:20:02.511Z,15.50
2017-11-08T12:21:05.302Z,9.37
2017-11-08T12:22:06.658Z,6.87
2017-11-08T12:23:08.021Z,6.60
2017-11-08T12:24:09.761Z,7.83
2017-11-08T12:25:11.096Z,18.27
2017-11-08T12:26:12.462Z,14.80
2017-11-08T12:27:13.825Z,13.27
2017-11-08T12:28:17.788Z,8.27
2017-11-08T12:29:19.394Z,6.43
2017-11-08T12:30:20.745Z,4.53
2017-11-08T12:31:22.110Z,4.83
2017-11-08T12:32:23.478Z,6.40
2017-11-08T12:33:25.581Z,6.13
2017-11-08T12:34:26.953Z,4.32
2017-11-08T12:35:28.305Z,4.50
2017-11-08T12:36:29.645Z,4.47
2017-11-08T12:37:30.982Z,5.87
2017-11-08T12:38:32.330Z,5.33
2017-11-08T12:39:33.735Z,5.10
2017-11-08T12:40:35.108Z,20.37
2017-11-08T12:41:36.477Z,12.83
2017-11-08T12:42:37.824Z,7.10
2017-11-08T12:43:39.953Z,5.30
2017-11-08T12:44:48.244Z,6.10
2017-11-08T12:45:49.630Z,7.77
2017-11-08T12:46:50.972Z,9.07
2017-11-08T12:47:52.320Z,7.20
2017-11-08T12:48:53.693Z,6.17
2017-11-08T12:49:55.078Z,5.23
2017-11-08T12:50:56.430Z,5.10
2017-11-08T12:51:57.777Z,4.90
2017-11-08T12:52:59.123Z,4.10
2017-11-08T12:54:00.499Z,4.47
2017-11-08T12:55:02.918Z,4.27
2017-11-08T12:56:05.105Z,3.93
2017-11-08T12:57:07.203Z,3.73
2017-11-08T12:58:08.536Z,3.87
2017-11-08T12:59:09.907Z,4.70
2017-11-08T13:00:11.291Z,3.67
2017-11-08T13:01:13.374Z,4.10
2017-11-08T13:02:14.719Z,3.67
2017-11-08T13:03:16.053Z,3.77
2017-11-08T13:04:17.393Z,3.83
2017-11-08T13:05:19.065Z,4.10
2017-11-08T13:06:20.425Z,4.00
2017-11-08T13:07:21.774Z,4.17
2017-11-08T13:08:23.112Z,4.23
2017-11-08T13:09:24.464Z,4.23
2017-11-08T13:10:26.469Z,4.37
2017-11-08T13:11:33.829Z,4.27
2017-11-08T13:12:35.161Z,4.33
2017-11-08T13:13:36.695Z,4.80
2017-11-08T13:14:38.058Z,4.80
2017-11-08T13:15:39.446Z,4.97
2017-11-08T13:16:40.786Z,4.60
2017-11-08T13:17:42.182Z,5.17
2017-11-08T13:18:43.509Z,5.03
2017-11-08T13:19:44.861Z,5.37
2017-11-08T13:20:46.615Z,5.03
2017-11-08T13:21:47.992Z,7.20
2017-11-08T13:22:49.340Z,6.30
2017-11-08T13:23:50.697Z,5.17
2017-11-08T13:24:52.805Z,4.23
2017-11-08T13:25:54.927Z,4.83
2017-11-08T13:26:56.274Z,4.63
2017-11-08T13:27:57.663Z,5.17
2017-11-08T13:28:58.993Z,5.87
2017-11-08T13:30:00.333Z,5.57
2017-11-08T13:31:01.737Z,5.57
2017-11-08T13:32:03.080Z,5.53
2017-11-08T13:33:04.439Z,21.63